Time;durP1;ratioP1;P1;durP2;ratioP2;P2;SDS_P1;SDS_P2;PMS_P1;PMS_P2;Temp;Humidity;BMP_temperature;BMP_pressure;BME280_temperature;BME280_humidity;BME280_pressure;Samples;Min_cycle;Max_cycle;Signal;HPM_P1;HPM_P2
2022/10/31 00:01:01;;;;;;;11.88;3.60;;;13.60;67.30;;;;;;5032726;28;20032;-79
2022/10/31 00:03:27;;;;;;;9.93;3.17;;;13.50;67.40;;;;;;5015091;28;20060;-79
2022/10/31 00:05:53;;;;;;;7.70;2.83;;;13.60;67.00;;;;;;5032646;28;20041;-79
2022/10/31 00:08:19;;;;;;;10.23;3.10;;;13.60;66.90;;;;;;5032571;28;20381;-79
2022/10/31 00:10:45;;;;;;;9.65;3.28;;;13.60;66.80;;;;;;5014651;28;20036;-80
2022/10/31 00:13:12;;;;;;;9.30;2.67;;;13.60;66.90;;;;;;5032727;28;20021;-79
2022/10/31 00:15:39;;;;;;;16.98;3.58;;;13.60;66.80;;;;;;5016285;28;20082;-87
2022/10/31 00:18:06;;;;;;;8.40;2.97;;;13.60;67.00;;;;;;5036849;28;20105;-83
2022/10/31 00:20:32;;;;;;;12.10;3.05;;;13.60;66.80;;;;;;5036961;28;20029;-83
2022/10/31 00:23:01;;;;;;;13.85;3.25;;;13.60;67.00;;;;;;5037028;28;20067;-86
2022/10/31 00:25:28;;;;;;;10.80;2.95;;;13.60;66.80;;;;;;5036870;28;20030;-85
2022/10/31 00:27:54;;;;;;;12.35;2.88;;;13.50;66.70;;;;;;5036629;28;20052;-83
2022/10/31 00:30:20;;;;;;;11.88;3.05;;;13.50;67.10;;;;;;5036635;28;20023;-80
2022/10/31 00:32:46;;;;;;;10.00;3.08;;;13.40;67.20;;;;;;5036409;28;20031;-81
2022/10/31 00:35:11;;;;;;;13.00;3.58;;;13.30;67.40;;;;;;5036393;28;20390;-86
2022/10/31 00:37:37;;;;;;;10.02;3.38;;;13.30;67.50;;;;;;5036381;28;20060;-83
2022/10/31 00:40:03;;;;;;;12.20;2.88;;;13.30;67.60;;;;;;5018377;28;20025;-82
2022/10/31 00:42:28;;;;;;;7.07;3.10;;;13.20;67.50;;;;;;5036045;28;20109;-85
2022/10/31 00:44:54;;;;;;;6.25;2.92;;;13.30;67.50;;;;;;5036188;28;20083;-83
2022/10/31 00:47:19;;;;;;;10.32;3.15;;;13.30;67.40;;;;;;5018426;28;20589;-82
2022/10/31 00:49:45;;;;;;;7.57;3.08;;;13.30;67.30;;;;;;5035980;28;20160;-85
2022/10/31 00:52:10;;;;;;;9.63;3.45;;;13.40;67.40;;;;;;5018255;28;20148;-80
2022/10/31 00:54:36;;;;;;;10.50;2.88;;;13.40;67.30;;;;;;5035710;28;20064;-81
2022/10/31 00:57:01;;;;;;;9.27;2.90;;;13.30;67.20;;;;;;5035601;28;20026;-80
2022/10/31 00:59:27;;;;;;;12.95;2.92;;;13.20;67.30;;;;;;5035636;28;20036;-80
2022/10/31 01:01:53;;;;;;;9.05;2.85;;;13.10;67.80;;;;;;5035597;28;20119;-80
2022/10/31 01:04:18;;;;;;;10.45;2.95;;;13.10;68.30;;;;;;5035162;28;20022;-79
2022/10/31 01:06:44;;;;;;;9.73;2.47;;;13.00;68.50;;;;;;5034761;28;20040;-80
2022/10/31 01:09:09;;;;;;;11.13;3.22;;;13.00;68.50;;;;;;5034293;28;20421;-81
2022/10/31 01:11:35;;;;;;;7.18;2.85;;;13.10;68.50;;;;;;5035425;28;20540;-81
2022/10/31 01:14:00;;;;;;;12.27;2.35;;;13.10;68.10;;;;;;5035227;28;20029;-80
2022/10/31 01:16:29;;;;;;;12.10;3.15;;;13.10;68.10;;;;;;5035252;28;20049;-80
2022/10/31 01:18:55;;;;;;;7.32;2.53;;;13.20;68.20;;;;;;5030510;28;20018;-80
2022/10/31 01:21:24;;;;;;;10.98;3.00;;;13.20;68.30;;;;;;5015394;28;20033;-80
2022/10/31 01:23:52;;;;;;;13.10;3.30;;;13.20;67.90;;;;;;5015055;28;20022;-80
2022/10/31 01:26:26;;;;;;;8.60;2.80;;;13.20;67.80;;;;;;5014898;28;20474;-80
2022/10/31 01:28:54;;;;;;;8.60;3.47;;;13.20;67.70;;;;;;5014776;28;20429;-80
2022/10/31 01:31:21;;;;;;;6.78;2.80;;;13.20;67.70;;;;;;5015727;28;20044;-84
2022/10/31 01:33:47;;;;;;;10.93;3.05;;;13.10;67.80;;;;;;5015603;28;20386;-82
2022/10/31 01:36:15;;;;;;;11.40;2.90;;;13.20;68.00;;;;;;5015694;28;20033;-82
2022/10/31 01:38:41;;;;;;;8.82;2.70;;;13.10;68.00;;;;;;5015904;28;20097;-87
2022/10/31 01:41:07;;;;;;;13.25;2.70;;;13.10;68.10;;;;;;5015286;28;20108;-84
2022/10/31 01:43:49;;;;;;;6.43;2.65;;;13.00;68.00;;;;;;5014257;28;20052;-80
2022/10/31 01:46:22;;;;;;;4.97;2.15;;;13.00;68.30;;;;;;5014830;28;20030;-81
2022/10/31 01:48:48;;;;;;;12.23;2.90;;;13.00;68.20;;;;;;5015142;28;20029;-80
2022/10/31 01:51:17;;;;;;;6.20;2.13;;;13.00;68.50;;;;;;5014842;28;20034;-79
2022/10/31 01:53:44;;;;;;;9.73;2.63;;;13.10;68.30;;;;;;5014928;28;20386;-80
2022/10/31 01:56:11;;;;;;;9.88;2.70;;;13.10;68.40;;;;;;5014993;28;20022;-79
2022/10/31 01:58:37;;;;;;;7.72;3.03;;;13.00;68.30;;;;;;5014751;28;20068;-81
2022/10/31 02:01:03;;;;;;;7.85;3.13;;;12.90;68.60;;;;;;5014766;28;20034;-78
2022/10/31 02:03:30;;;;;;;7.55;3.10;;;12.80;69.20;;;;;;5014876;28;20495;-78
2022/10/31 02:05:57;;;;;;;8.82;2.65;;;12.70;69.60;;;;;;5014751;28;20080;-80
2022/10/31 02:08:28;;;;;;;9.23;2.60;;;12.70;69.50;;;;;;5014438;28;20038;-79
2022/10/31 02:10:55;;;;;;;9.75;3.00;;;12.80;69.40;;;;;;5014727;28;20030;-79
2022/10/31 02:13:23;;;;;;;10.25;2.80;;;12.70;69.70;;;;;;5014731;28;20395;-78
2022/10/31 02:15:55;;;;;;;9.13;3.15;;;12.60;69.90;;;;;;5014454;28;20101;-79
2022/10/31 02:18:21;;;;;;;6.57;2.55;;;12.60;69.80;;;;;;5014509;28;20029;-80
2022/10/31 02:21:10;;;;;;;13.38;3.35;;;12.70;69.70;;;;;;5014388;28;20069;-80
2022/10/31 02:24:10;;;;;;;8.23;2.50;;;12.70;69.50;;;;;;5014487;28;20024;-81
2022/10/31 02:26:41;;;;;;;11.45;3.08;;;12.70;69.50;;;;;;5014937;28;20034;-84
2022/10/31 02:29:41;;;;;;;8.93;2.70;;;12.70;69.60;;;;;;5014951;28;20038;-85
2022/10/31 02:32:27;;;;;;;17.33;3.05;;;12.70;69.50;;;;;;5015085;28;20463;-86
2022/10/31 02:35:03;;;;;;;12.32;3.15;;;12.70;69.50;;;;;;4999744;28;20099;-85
2022/10/31 02:37:41;;;;;;;12.80;2.70;;;12.70;69.40;;;;;;5015035;28;20033;-80
2022/10/31 02:40:14;;;;;;;10.93;2.63;;;12.70;69.40;;;;;;5014355;28;20037;-85
2022/10/31 02:42:53;;;;;;;11.35;3.22;;;12.70;69.20;;;;;;5014064;28;20042;-78
2022/10/31 02:45:24;;;;;;;10.38;2.15;;;12.70;69.10;;;;;;5013758;28;20091;-78
2022/10/31 02:47:53;;;;;;;12.77;2.70;;;12.70;69.20;;;;;;5013985;28;20092;-78
2022/10/31 02:50:28;;;;;;;10.05;2.40;;;12.70;69.30;;;;;;5013838;28;20029;-78
2022/10/31 02:52:54;;;;;;;8.82;2.80;;;12.60;69.20;;;;;;5013646;28;20096;-79
2022/10/31 02:55:22;;;;;;;10.43;3.13;;;12.60;69.50;;;;;;5012431;28;20487;-80
2022/10/31 02:57:49;;;;;;;5.55;2.70;;;12.60;69.30;;;;;;5013782;28;20479;-80
2022/10/31 03:00:15;;;;;;;9.23;2.60;;;12.60;69.20;;;;;;5012588;28;20386;-80
2022/10/31 03:02:55;;;;;;;8.73;2.97;;;12.60;69.40;;;;;;5014269;28;20022;-86
2022/10/31 03:05:40;;;;;;;13.50;3.53;;;12.60;69.40;;;;;;5013703;28;20486;-86
2022/10/31 03:08:29;;;;;;;11.02;3.17;;;12.60;69.40;;;;;;5014960;28;20152;-86
2022/10/31 03:10:58;;;;;;;10.70;2.95;;;12.50;69.50;;;;;;5014619;28;20124;-87
2022/10/31 03:13:47;;;;;;;7.28;3.05;;;12.40;69.50;;;;;;5014520;28;20552;-88
2022/10/31 03:16:18;;;;;;;8.13;2.95;;;12.40;69.60;;;;;;5014520;28;20379;-77
2022/10/31 03:18:51;;;;;;;9.30;3.10;;;12.40;70.00;;;;;;5013611;28;20022;-81
2022/10/31 03:21:35;;;;;;;8.23;2.97;;;12.40;69.80;;;;;;5013687;28;20026;-79
2022/10/31 03:24:01;;;;;;;9.52;2.47;;;12.40;70.10;;;;;;5013573;28;20075;-80
2022/10/31 03:26:28;;;;;;;13.75;2.50;;;12.40;70.20;;;;;;5013726;28;20402;-80
2022/10/31 03:29:07;;;;;;;11.70;2.97;;;12.30;70.20;;;;;;5013497;28;20041;-82
2022/10/31 03:31:36;;;;;;;8.73;2.75;;;12.30;70.20;;;;;;5013564;28;20161;-79
2022/10/31 03:34:03;;;;;;;8.20;2.53;;;12.30;70.20;;;;;;5013361;28;20478;-79
2022/10/31 03:36:33;;;;;;;9.63;2.83;;;12.20;70.30;;;;;;5013418;28;20497;-77
2022/10/31 03:39:02;;;;;;;5.63;2.58;;;12.30;70.60;;;;;;5013129;28;20053;-80
2022/10/31 03:41:31;;;;;;;8.60;2.83;;;12.30;70.60;;;;;;5013247;28;20026;-80
2022/10/31 03:44:12;;;;;;;10.43;2.65;;;12.30;70.50;;;;;;5013353;28;20398;-80
2022/10/31 03:46:38;;;;;;;10.45;2.70;;;12.20;70.60;;;;;;5013394;28;20084;-79
2022/10/31 03:49:04;;;;;;;10.00;3.15;;;12.20;70.70;;;;;;5013286;28;20443;-81
2022/10/31 03:51:57;;;;;;;11.68;2.88;;;12.30;70.60;;;;;;5016056;28;20462;-80
2022/10/31 03:54:29;;;;;;;8.13;2.60;;;12.30;70.50;;;;;;5017688;28;20459;-86
2022/10/31 03:57:03;;;;;;;10.65;2.92;;;12.20;70.50;;;;;;5017078;28;20103;-79
2022/10/31 03:59:35;;;;;;;9.70;2.60;;;12.30;70.40;;;;;;5016950;28;20421;-80
2022/10/31 04:02:07;;;;;;;10.32;3.00;;;12.30;70.30;;;;;;5017148;28;20382;-88
2022/10/31 04:04:35;;;;;;;7.82;2.40;;;12.30;70.20;;;;;;5017297;28;20026;-86
2022/10/31 04:07:02;;;;;;;11.23;2.80;;;12.30;70.30;;;;;;5016976;28;20107;-79
2022/10/31 04:09:29;;;;;;;8.57;2.70;;;12.30;70.40;;;;;;5016880;28;20467;-80
2022/10/31 04:11:59;;;;;;;12.93;2.92;;;12.30;70.40;;;;;;5017138;28;20104;-78
2022/10/31 04:14:27;;;;;;;10.70;2.28;;;12.20;71.20;;;;;;5016804;28;20045;-79
2022/10/31 04:16:53;;;;;;;8.93;2.70;;;12.20;70.60;;;;;;5016756;28;20030;-79
2022/10/31 04:19:19;;;;;;;9.65;3.05;;;12.20;70.70;;;;;;5016727;28;20053;-79
2022/10/31 04:21:45;;;;;;;8.23;2.95;;;12.20;70.60;;;;;;5016595;28;20029;-79
2022/10/31 04:24:11;;;;;;;10.48;2.67;;;12.20;70.80;;;;;;5016326;28;20022;-79
2022/10/31 04:26:37;;;;;;;10.73;2.85;;;12.10;70.70;;;;;;5015230;28;20104;-79
2022/10/31 04:29:03;;;;;;;7.88;2.65;;;12.20;70.80;;;;;;5016219;28;20506;-80
2022/10/31 04:31:28;;;;;;;8.68;2.53;;;12.10;70.90;;;;;;5016381;28;20018;-79
2022/10/31 04:33:54;;;;;;;7.03;2.60;;;12.10;71.00;;;;;;5016379;28;20018;-79
2022/10/31 04:36:19;;;;;;;14.52;3.65;;;12.10;71.20;;;;;;5016358;28;20360;-79
2022/10/31 04:38:45;;;;;;;6.93;2.60;;;12.00;71.50;;;;;;5016228;28;20105;-78
2022/10/31 04:41:10;;;;;;;12.23;3.58;;;11.90;71.90;;;;;;5014303;28;20021;-77
2022/10/31 04:43:36;;;;;;;10.75;2.58;;;11.90;71.90;;;;;;5016122;28;20034;-78
2022/10/31 04:46:02;;;;;;;9.95;2.67;;;11.90;72.20;;;;;;5014624;28;20042;-78
2022/10/31 04:48:28;;;;;;;11.88;2.88;;;11.90;72.00;;;;;;5016109;28;20022;-77
2022/10/31 04:50:59;;;;;;;13.55;2.75;;;11.90;72.00;;;;;;5015844;28;20088;-78
2022/10/31 04:53:24;;;;;;;12.13;3.38;;;11.80;72.10;;;;;;5014577;28;20033;-77
2022/10/31 04:55:50;;;;;;;9.40;3.10;;;11.90;72.00;;;;;;5016004;28;20034;-78
2022/10/31 04:58:15;;;;;;;18.63;3.53;;;11.90;71.90;;;;;;5016371;28;20463;-78
2022/10/31 05:00:41;;;;;;;14.68;4.07;;;12.00;71.80;;;;;;5016357;28;20030;-80
2022/10/31 05:03:07;;;;;;;9.57;3.05;;;12.00;71.50;;;;;;5014328;28;20478;-78
2022/10/31 05:05:32;;;;;;;12.98;2.63;;;12.00;71.50;;;;;;5015807;28;20605;-78
2022/10/31 05:07:58;;;;;;;6.85;2.75;;;12.00;71.60;;;;;;5015642;28;20025;-76
2022/10/31 05:10:26;;;;;;;13.90;3.42;;;12.00;71.40;;;;;;5015839;28;20462;-77
2022/10/31 05:12:54;;;;;;;11.73;2.80;;;12.00;71.20;;;;;;5015960;28;20026;-76
2022/10/31 05:15:22;;;;;;;8.60;2.97;;;12.00;71.20;;;;;;5015748;28;20101;-76
2022/10/31 05:17:48;;;;;;;8.23;2.67;;;12.00;71.20;;;;;;5015269;28;20030;-76
2022/10/31 05:20:15;;;;;;;7.95;2.90;;;12.00;71.00;;;;;;5015383;28;20026;-76
2022/10/31 05:22:46;;;;;;;9.68;3.28;;;11.80;71.50;;;;;;5015352;28;20513;-76
2022/10/31 05:25:12;;;;;;;7.80;2.88;;;11.70;71.70;;;;;;5015040;28;20045;-77
2022/10/31 05:27:43;;;;;;;11.90;2.78;;;11.60;72.40;;;;;;5013769;28;20193;-76
2022/10/31 05:30:10;;;;;;;7.68;2.78;;;11.50;72.90;;;;;;5015930;28;20470;-78
2022/10/31 05:32:44;;;;;;;8.35;3.40;;;11.50;73.20;;;;;;5015525;28;20385;-78
2022/10/31 05:35:15;;;;;;;8.45;2.97;;;11.40;73.40;;;;;;5016088;28;20053;-78
2022/10/31 05:37:41;;;;;;;9.48;2.97;;;11.50;73.50;;;;;;5016726;28;20109;-85
2022/10/31 05:40:10;;;;;;;9.38;3.10;;;11.50;73.50;;;;;;5016740;28;20072;-82
2022/10/31 05:42:37;;;;;;;8.05;2.90;;;11.60;73.30;;;;;;5016000;28;20080;-86
2022/10/31 05:45:03;;;;;;;9.80;2.70;;;11.60;73.40;;;;;;5017131;28;20029;-88
2022/10/31 05:47:29;;;;;;;11.13;3.28;;;11.60;73.10;;;;;;5017244;28;20053;-84
2022/10/31 05:49:55;;;;;;;9.27;3.13;;;11.60;73.00;;;;;;5017860;28;20068;-85
2022/10/31 05:52:20;;;;;;;10.35;3.05;;;11.60;72.80;;;;;;5017762;28;20030;-82
2022/10/31 05:54:46;;;;;;;11.52;3.05;;;11.70;72.80;;;;;;5016823;28;20030;-90
2022/10/31 05:57:11;;;;;;;11.20;3.03;;;11.80;72.60;;;;;;5016128;28;20046;-79
2022/10/31 05:59:37;;;;;;;7.93;3.20;;;11.70;72.60;;;;;;5016591;28;20104;-83
2022/10/31 06:02:02;;;;;;;10.63;2.72;;;11.70;72.40;;;;;;5016142;28;20037;-90
2022/10/31 06:04:28;;;;;;;10.70;3.03;;;11.70;72.40;;;;;;5019012;28;20053;-90
2022/10/31 06:06:53;;;;;;;14.38;3.55;;;11.70;72.30;;;;;;5018434;28;20033;-89
2022/10/31 06:09:19;;;;;;;12.10;3.13;;;11.70;72.30;;;;;;5014701;28;20050;-80
2022/10/31 06:11:45;;;;;;;9.48;3.17;;;11.70;72.40;;;;;;5015389;28;20157;-82
2022/10/31 06:14:10;;;;;;;15.40;3.97;;;11.70;72.60;;;;;;5014095;28;20113;-79
2022/10/31 06:16:36;;;;;;;11.00;3.35;;;11.70;72.60;;;;;;5014410;28;20121;-79
2022/10/31 06:19:01;;;;;;;8.35;2.90;;;11.60;72.60;;;;;;5015229;28;20025;-79
2022/10/31 06:21:27;;;;;;;7.55;3.20;;;11.60;72.60;;;;;;5016302;28;20030;-84
2022/10/31 06:23:53;;;;;;;9.18;3.05;;;11.60;72.60;;;;;;5015523;28;20037;-86
2022/10/31 06:26:18;;;;;;;16.70;3.22;;;11.60;72.50;;;;;;5016236;28;20030;-80
2022/10/31 06:28:44;;;;;;;8.25;2.97;;;11.70;72.50;;;;;;5016611;28;20046;-81
2022/10/31 06:31:09;;;;;;;9.77;3.53;;;11.70;72.30;;;;;;5016114;28;20422;-80
2022/10/31 06:33:35;;;;;;;11.18;3.33;;;11.80;72.10;;;;;;5017508;28;20022;-78
2022/10/31 06:36:01;;;;;;;6.90;3.05;;;11.80;72.20;;;;;;5021332;28;20037;-79
2022/10/31 06:38:27;;;;;;;5.38;2.58;;;11.80;72.90;;;;;;5017140;28;20033;-78
2022/10/31 06:40:53;;;;;;;8.90;3.63;;;11.80;71.80;;;;;;5017006;28;20176;-79
2022/10/31 06:43:20;;;;;;;7.57;3.08;;;11.90;71.90;;;;;;5015162;28;20030;-81
2022/10/31 06:45:46;;;;;;;10.30;3.53;;;11.90;72.00;;;;;;5016088;28;20108;-81
2022/10/31 06:48:11;;;;;;;7.47;3.50;;;11.90;71.90;;;;;;5015763;28;20014;-79
2022/10/31 06:50:37;;;;;;;9.95;4.05;;;11.90;71.90;;;;;;5014850;28;20053;-78
2022/10/31 06:53:03;;;;;;;11.32;3.65;;;12.00;71.70;;;;;;5014904;28;20106;-79
2022/10/31 06:55:28;;;;;;;9.35;4.10;;;12.00;71.70;;;;;;5014660;28;20467;-79
2022/10/31 06:57:58;;;;;;;13.05;3.80;;;12.00;71.50;;;;;;5014721;28;20025;-81
2022/10/31 07:00:26;;;;;;;9.90;4.13;;;12.20;71.50;;;;;;5016894;28;20033;-81
2022/10/31 07:03:01;;;;;;;6.28;3.10;;;12.20;71.40;;;;;;5019563;28;20532;-80
2022/10/31 07:05:27;;;;;;;5.72;3.03;;;12.30;71.30;;;;;;5018774;28;20041;-79
2022/10/31 07:08:02;;;;;;;7.00;2.80;;;12.40;70.90;;;;;;5018378;28;20072;-82
2022/10/31 07:10:30;;;;;;;10.95;3.72;;;12.50;70.80;;;;;;5014374;28;20018;-83
2022/10/31 07:12:57;;;;;;;9.25;3.63;;;12.70;70.50;;;;;;5015967;28;20152;-83
2022/10/31 07:15:23;;;;;;;9.07;3.38;;;12.70;70.10;;;;;;5016958;28;20481;-86
2022/10/31 07:17:49;;;;;;;11.82;3.50;;;12.80;69.80;;;;;;5015165;28;20022;-85
2022/10/31 07:20:15;;;;;;;7.60;3.00;;;12.90;69.80;;;;;;5017378;28;20029;-79
2022/10/31 07:22:41;;;;;;;6.65;3.70;;;13.00;69.40;;;;;;5016257;28;20030;-80
2022/10/31 07:25:07;;;;;;;9.82;4.10;;;13.10;68.90;;;;;;5014479;28;20502;-84
2022/10/31 07:27:37;;;;;;;11.85;4.00;;;13.10;69.50;;;;;;5015052;28;20034;-82
2022/10/31 07:30:04;;;;;;;10.00;4.53;;;13.10;69.50;;;;;;5013513;28;20065;-82
2022/10/31 07:32:41;;;;;;;11.38;5.20;;;13.20;69.10;;;;;;5015622;28;20042;-80
2022/10/31 07:35:12;;;;;;;12.80;5.93;;;13.30;68.80;;;;;;5015131;28;20018;-83
2022/10/31 07:37:38;;;;;;;18.65;6.75;;;13.40;68.10;;;;;;5013156;28;20025;-78
2022/10/31 07:40:05;;;;;;;15.02;6.40;;;13.40;67.50;;;;;;5013651;28;20026;-79
2022/10/31 07:42:41;;;;;;;14.15;5.90;;;13.40;67.50;;;;;;5011668;28;20083;-78
2022/10/31 07:45:09;;;;;;;18.83;5.57;;;13.50;67.70;;;;;;5011904;28;20044;-86
2022/10/31 07:47:51;;;;;;;13.38;5.22;;;13.40;67.70;;;;;;5014291;28;20066;-89
2022/10/31 07:50:19;;;;;;;9.70;4.35;;;13.50;67.90;;;;;;5012776;28;20022;-79
2022/10/31 07:52:44;;;;;;;13.32;4.38;;;13.60;67.70;;;;;;5012699;28;20018;-79
2022/10/31 07:55:10;;;;;;;11.07;3.42;;;13.70;67.70;;;;;;5012909;28;20613;-79
2022/10/31 07:57:36;;;;;;;11.48;3.50;;;13.80;67.40;;;;;;5012549;28;20455;-80
2022/10/31 08:00:09;;;;;;;6.60;2.75;;;14.00;67.00;;;;;;5012295;28;20030;-78
2022/10/31 08:02:35;;;;;;;21.27;3.58;;;14.30;67.60;;;;;;5012396;28;20057;-78
2022/10/31 08:05:04;;;;;;;11.20;4.03;;;14.50;66.90;;;;;;5011018;28;20061;-78
2022/10/31 08:07:29;;;;;;;9.10;3.97;;;14.60;66.70;;;;;;5012426;28;20156;-80
2022/10/31 08:09:55;;;;;;;11.00;3.88;;;14.70;65.70;;;;;;5012525;28;20105;-80
2022/10/31 08:12:21;;;;;;;11.13;3.88;;;14.90;65.00;;;;;;5011008;28;20033;-79
2022/10/31 08:14:46;;;;;;;29.02;5.00;;;15.00;64.70;;;;;;5012580;28;20427;-84
2022/10/31 08:17:12;;;;;;;26.08;5.97;;;15.20;66.70;;;;;;5013186;28;20065;-87
2022/10/31 08:19:39;;;;;;;14.02;4.63;;;15.50;72.50;;;;;;5015717;28;20029;-89
2022/10/31 08:22:05;;;;;;;12.40;5.00;;;15.70;67.20;;;;;;5013361;28;20030;-85
2022/10/31 08:24:30;;;;;;;11.85;4.25;;;15.90;64.40;;;;;;5016547;28;20447;-86
2022/10/31 08:26:56;;;;;;;15.27;3.92;;;16.10;63.50;;;;;;5015987;28;20389;-89
2022/10/31 08:29:22;;;;;;;10.93;4.15;;;16.20;62.30;;;;;;5013211;28;20030;-84
2022/10/31 08:31:47;;;;;;;15.82;3.75;;;16.40;61.10;;;;;;5011232;28;20033;-82
2022/10/31 08:34:13;;;;;;;14.10;4.78;;;16.50;59.90;;;;;;5011093;28;20037;-82
2022/10/31 08:36:38;;;;;;;11.52;3.90;;;16.50;59.80;;;;;;5012343;28;20026;-85
2022/10/31 08:39:04;;;;;;;15.55;3.97;;;16.60;60.20;;;;;;5014859;28;20109;-84
2022/10/31 08:41:30;;;;;;;14.70;3.90;;;16.80;59.30;;;;;;5014040;28;20090;-83
2022/10/31 08:43:55;;;;;;;11.25;3.60;;;17.00;60.10;;;;;;5015995;28;20025;-85
2022/10/31 08:46:21;;;;;;;10.23;3.40;;;17.10;58.70;;;;;;5015708;28;20049;-83
2022/10/31 08:48:50;;;;;;;13.00;3.63;;;17.30;58.40;;;;;;5014800;28;20070;-83
2022/10/31 08:51:16;;;;;;;9.93;3.55;;;17.50;58.10;;;;;;5016028;28;20486;-84
2022/10/31 08:53:41;;;;;;;13.68;4.35;;;17.80;57.10;;;;;;5015847;28;20026;-92
2022/10/31 08:56:07;;;;;;;11.43;4.13;;;18.00;56.50;;;;;;5015714;28;20037;-84
2022/10/31 08:58:32;;;;;;;9.38;3.78;;;18.20;55.70;;;;;;5014321;28;20147;-85
2022/10/31 09:01:00;;;;;;;11.18;3.13;;;18.30;54.30;;;;;;5014333;28;20029;-84
2022/10/31 09:03:31;;;;;;;11.52;3.58;;;18.60;53.70;;;;;;5014550;28;20018;-84
2022/10/31 09:05:59;;;;;;;15.18;3.10;;;18.70;52.50;;;;;;5014114;28;20044;-85
2022/10/31 09:08:25;;;;;;;10.45;3.22;;;18.80;53.00;;;;;;5014289;28;20072;-84
2022/10/31 09:10:51;;;;;;;13.05;3.50;;;19.00;52.00;;;;;;5013771;28;20033;-84
2022/10/31 09:13:19;;;;;;;9.95;3.35;;;19.10;51.80;;;;;;5015359;28;20030;-84
2022/10/31 09:15:47;;;;;;;14.13;3.85;;;19.10;49.80;;;;;;5013841;28;20025;-84
2022/10/31 09:18:14;;;;;;;7.35;2.80;;;19.10;50.60;;;;;;5016603;28;20033;-84
2022/10/31 09:20:41;;;;;;;12.27;3.70;;;19.30;51.20;;;;;;5017460;28;20025;-84
2022/10/31 09:23:11;;;;;;;10.02;3.08;;;19.50;50.00;;;;;;5017943;28;20488;-84
2022/10/31 09:25:36;;;;;;;7.68;3.20;;;19.60;49.70;;;;;;5033528;28;20458;-84
2022/10/31 09:28:04;;;;;;;11.65;2.95;;;19.80;49.20;;;;;;5036032;28;20080;-86
2022/10/31 09:30:31;;;;;;;6.95;2.78;;;20.00;48.70;;;;;;5035315;28;20041;-84
2022/10/31 09:33:10;;;;;;;10.95;3.22;;;20.20;48.10;;;;;;5018058;28;20120;-84
2022/10/31 09:35:35;;;;;;;8.55;2.70;;;20.30;47.40;;;;;;5017414;28;20021;-82
2022/10/31 09:38:03;;;;;;;4.10;2.55;;;20.50;46.70;;;;;;5034437;28;20444;-84
2022/10/31 09:41:03;;;;;;;10.60;3.03;;;20.50;46.00;;;;;;5016639;28;20386;-85
2022/10/31 09:43:52;;;;;;;7.13;3.30;;;20.50;45.60;;;;;;5014303;28;20120;-88
2022/10/31 09:46:39;;;;;;;8.10;2.28;;;20.50;45.30;;;;;;5032129;28;20041;-87
2022/10/31 09:49:26;;;;;;;9.15;2.90;;;20.60;44.90;;;;;;5010322;28;20025;-86
2022/10/31 09:52:09;;;;;;;9.05;2.58;;;20.60;44.00;;;;;;5027114;28;20037;-87
2022/10/31 09:54:35;;;;;;;11.07;2.90;;;20.60;44.70;;;;;;5034798;28;20120;-83
2022/10/31 09:57:01;;;;;;;6.65;2.90;;;20.60;45.00;;;;;;5014680;28;20108;-83
2022/10/31 09:59:31;;;;;;;7.68;2.88;;;20.70;44.50;;;;;;5015922;28;20056;-85
2022/10/31 10:02:10;;;;;;;7.50;2.75;;;21.00;44.40;;;;;;5035053;28;20053;-85
2022/10/31 10:04:41;;;;;;;9.90;2.70;;;21.20;43.70;;;;;;5016543;28;20064;-84
2022/10/31 10:07:22;;;;;;;10.50;3.08;;;21.50;43.60;;;;;;5017069;28;20029;-89
2022/10/31 10:09:49;;;;;;;8.52;3.05;;;21.70;42.60;;;;;;5032955;28;20027;-88
2022/10/31 10:12:20;;;;;;;13.98;4.00;;;21.90;42.10;;;;;;5021635;28;20095;-92
2022/10/31 10:14:58;;;;;;;11.73;4.13;;;22.20;41.60;;;;;;5036898;28;20018;-93
2022/10/31 10:18:02;;;;;;;6.57;3.15;;;22.30;41.30;;;;;;5037172;28;20087;-86
2022/10/31 10:20:31;;;;;;;9.40;3.63;;;22.40;40.90;;;;;;5018327;28;20017;-83
2022/10/31 10:23:19;;;;;;;6.32;3.08;;;22.50;40.70;;;;;;5035599;28;20112;-93
2022/10/31 10:25:48;;;;;;;11.48;3.92;;;22.60;40.30;;;;;;5036623;28;20033;-85
2022/10/31 10:28:38;;;;;;;9.55;2.65;;;22.70;40.50;;;;;;5035591;28;20112;-83
2022/10/31 10:31:25;;;;;;;10.35;2.72;;;22.90;40.40;;;;;;5035326;28;20044;-90
2022/10/31 10:34:11;;;;;;;7.38;2.75;;;22.70;40.20;;;;;;5035923;28;20080;-90
2022/10/31 10:36:48;;;;;;;8.10;3.08;;;22.90;40.10;;;;;;5036538;28;20083;-85
2022/10/31 10:39:45;;;;;;;7.00;3.00;;;23.00;39.90;;;;;;5032069;28;20033;-82
2022/10/31 10:47:44;;;;;;;12.18;3.72;;;23.90;38.40;;;;;;5033236;28;20032;-82
2022/10/31 10:50:19;;;;;;;8.68;2.88;;;24.10;37.60;;;;;;5015770;28;20028;-83
2022/10/31 10:53:21;;;;;;;11.52;3.88;;;24.20;37.30;;;;;;5015742;28;20036;-79
2022/10/31 10:56:20;;;;;;;7.95;2.95;;;24.40;37.30;;;;;;5015568;28;20025;-80
2022/10/31 10:58:46;;;;;;;7.68;3.10;;;24.50;36.80;;;;;;5022040;28;20040;-84
2022/10/31 11:01:13;;;;;;;8.32;3.50;;;24.50;36.60;;;;;;5032735;28;20029;-80
2022/10/31 11:03:39;;;;;;;10.52;3.90;;;24.40;35.70;;;;;;5032673;28;20041;-80
2022/10/31 11:06:20;;;;;;;8.15;3.40;;;24.20;36.00;;;;;;5032613;28;20034;-85
2022/10/31 11:08:46;;;;;;;10.90;3.30;;;24.00;36.60;;;;;;4993624;28;20093;-82
2022/10/31 11:11:17;;;;;;;6.13;2.92;;;23.90;36.80;;;;;;4997002;28;20420;-89
2022/10/31 11:13:49;;;;;;;12.02;3.65;;;23.90;37.80;;;;;;4993866;28;20068;-81
2022/10/31 11:16:27;;;;;;;12.75;3.33;;;23.90;38.10;;;;;;4993849;28;20191;-86
2022/10/31 11:18:53;;;;;;;21.17;4.40;;;23.90;38.30;;;;;;4993922;28;20026;-83
2022/10/31 11:21:29;;;;;;;14.95;3.40;;;23.70;37.70;;;;;;4993340;28;20527;-81
2022/10/31 11:24:25;;;;;;;;;;;23.50;38.50;;;;;;4993813;28;20022;-83
2022/10/31 11:26:51;;;;;;;;;;;23.50;39.50;;;;;;4985601;28;19989;-84
2022/10/31 11:29:25;;;;;;;17.08;3.42;;;23.40;39.50;;;;;;4992943;28;20389;-84
2022/10/31 11:31:56;;;;;;;8.10;3.35;;;23.20;40.30;;;;;;4993279;28;20033;-88
2022/10/31 11:34:34;;;;;;;7.28;3.05;;;22.90;41.20;;;;;;4993172;28;20383;-81
2022/10/31 11:37:23;;;;;;;8.45;3.05;;;22.80;42.30;;;;;;4975543;28;20026;-81
2022/10/31 11:40:03;;;;;;;10.18;3.30;;;22.50;43.10;;;;;;4975903;28;20110;-87
2022/10/31 11:42:37;;;;;;;9.60;3.30;;;22.30;43.70;;;;;;4975454;28;20034;-82
2022/10/31 11:45:18;;;;;;;8.32;3.45;;;22.10;44.50;;;;;;4991735;28;20033;-83
2022/10/31 11:47:48;;;;;;;10.30;3.45;;;22.00;45.60;;;;;;4993196;28;20030;-82
2022/10/31 11:50:26;;;;;;;6.53;2.80;;;21.80;45.80;;;;;;4993041;28;20050;-80
2022/10/31 11:52:52;;;;;;;10.00;3.05;;;21.70;46.30;;;;;;4993672;28;20058;-87
2022/10/31 11:55:31;;;;;;;8.25;2.78;;;21.50;46.40;;;;;;4993039;28;20499;-80
2022/10/31 11:57:57;;;;;;;11.80;3.30;;;21.50;47.30;;;;;;4993104;28;20027;-80
2022/10/31 12:00:40;;;;;;;8.90;3.63;;;21.40;47.90;;;;;;4993208;28;20110;-81
2022/10/31 12:03:39;;;;;;;10.90;3.88;;;21.40;47.60;;;;;;4995632;28;20027;-91
2022/10/31 12:06:11;;;;;;;8.88;3.25;;;21.30;47.90;;;;;;4993594;28;20117;-79
2022/10/31 12:08:39;;;;;;;10.25;3.33;;;21.20;48.40;;;;;;4993263;28;20387;-84
2022/10/31 12:11:08;;;;;;;13.10;3.13;;;21.20;49.10;;;;;;4978288;28;20026;-81
2022/10/31 12:13:48;;;;;;;15.52;3.72;;;21.20;49.10;;;;;;4998384;28;20098;-87
2022/10/31 12:16:36;;;;;;;10.00;3.40;;;21.30;49.10;;;;;;4997866;28;20525;-86
2022/10/31 12:19:24;;;;;;;12.20;3.15;;;21.40;48.90;;;;;;4997807;28;20031;-88
2022/10/31 12:22:31;;;;;;;9.57;3.58;;;21.40;48.60;;;;;;4981062;28;20415;-90
2022/10/31 12:25:01;;;;;;;8.23;2.92;;;21.60;48.40;;;;;;4997934;28;20071;-89
2022/10/31 12:27:59;;;;;;;14.73;3.88;;;21.70;48.00;;;;;;4997646;28;20027;-85
2022/10/31 12:30:36;;;;;;;6.07;2.88;;;21.80;47.20;;;;;;4996997;28;20072;-80
2022/10/31 12:33:25;;;;;;;10.40;3.60;;;21.90;46.90;;;;;;4980088;28;20025;-88
2022/10/31 12:36:19;;;;;;;6.95;2.90;;;22.10;47.30;;;;;;4998164;28;20033;-86
2022/10/31 12:39:01;;;;;;;11.30;3.95;;;22.20;46.70;;;;;;4997596;28;20470;-86
2022/10/31 12:41:46;;;;;;;7.68;3.15;;;22.50;45.70;;;;;;4998951;28;20041;-89
2022/10/31 12:44:29;;;;;;;10.43;3.92;;;23.10;44.40;;;;;;5000687;28;20026;-83
2022/10/31 12:47:30;;;;;;;11.13;3.65;;;23.30;43.10;;;;;;4997187;28;20151;-78
2022/10/31 12:50:16;;;;;;;13.23;3.03;;;23.40;42.40;;;;;;4996155;28;20117;-80
2022/10/31 12:53:03;;;;;;;7.85;3.20;;;23.00;42.90;;;;;;4996284;28;20054;-77
2022/10/31 12:55:37;;;;;;;7.28;2.67;;;23.00;42.90;;;;;;4996470;28;20022;-82
2022/10/31 12:58:10;;;;;;;14.05;3.75;;;23.40;42.20;;;;;;4978418;28;20026;-84
2022/10/31 13:00:40;;;;;;;10.93;3.42;;;24.10;41.30;;;;;;4995872;28;20498;-82
2022/10/31 13:03:15;;;;;;;16.15;3.58;;;25.60;38.00;;;;;;4995799;28;20034;-77
2022/10/31 13:05:46;;;;;;;8.27;3.75;;;26.90;35.20;;;;;;4995654;28;20034;-77
2022/10/31 13:08:23;;;;;;;12.05;3.10;;;27.10;34.00;;;;;;4978254;28;20426;-76